createdAt,value
2022-11-05T00:00:59.469Z,101402.50
2022-11-05T00:05:19.695Z,101406.16
2022-11-05T00:09:30.331Z,101416.06
2022-11-05T00:13:50.432Z,101419.03
2022-11-05T00:17:52.084Z,101419.28
2022-11-05T00:22:12.431Z,101417.72
2022-11-05T00:26:14.461Z,101432.09
2022-11-05T00:30:19.560Z,101432.97
2022-11-05T00:34:21.525Z,101435.75
2022-11-05T00:38:23.300Z,101442.75
2022-11-05T00:42:43.570Z,101444.56
2022-11-05T00:46:45.257Z,101458.69
2022-11-05T00:50:46.978Z,101448.34
2022-11-05T00:54:48.676Z,101446.63
2022-11-05T00:58:50.373Z,101454.50
2022-11-05T01:02:52.539Z,101467.41
2022-11-05T01:06:55.216Z,101482.84
2022-11-05T01:10:58.568Z,101496.84
2022-11-05T01:15:00.680Z,101474.66
2022-11-05T01:19:04.607Z,101470.66
2022-11-05T01:23:12.100Z,101466.75
2022-11-05T01:27:15.312Z,101470.25
2022-11-05T01:31:16.936Z,101463.97
2022-11-05T01:35:18.944Z,101469.56
2022-11-05T01:39:20.598Z,101472.63
2022-11-05T01:43:23.505Z,101468.91
2022-11-05T01:47:47.837Z,101460.75
2022-11-05T01:51:51.376Z,101453.44
2022-11-05T01:55:56.096Z,101458.69
2022-11-05T01:59:59.932Z,101453.94
2022-11-05T02:04:08.981Z,101447.44
2022-11-05T02:08:18.949Z,101452.31
2022-11-05T02:12:21.877Z,101463.31
2022-11-05T02:16:28.929Z,101467.78
2022-11-05T02:20:52.216Z,101465.28
2022-11-05T02:25:03.355Z,101461.06
2022-11-05T02:29:54.499Z,101478.81
2022-11-05T02:34:11.644Z,101491.22
2022-11-05T02:38:18.939Z,101483.88
2022-11-05T02:42:42.562Z,101484.78
2022-11-05T02:46:52.942Z,101471.09
2022-11-05T02:51:03.041Z,101475.31
2022-11-05T02:55:38.663Z,101465.38
2022-11-05T02:59:40.309Z,101462.72
2022-11-05T03:03:52.973Z,101462.72
2022-11-05T03:08:06.860Z,101456.44
2022-11-05T03:12:14.582Z,101453.25
2022-11-05T03:16:22.708Z,101456.59
2022-11-05T03:20:41.463Z,101449.34
2022-11-05T03:24:46.575Z,101455.50
2022-11-05T03:28:54.703Z,101463.09
2022-11-05T03:33:03.691Z,101462.25
2022-11-05T03:37:06.789Z,101461.47
2022-11-05T03:41:14.171Z,101463.47
2022-11-05T03:45:21.361Z,101456.75
2022-11-05T03:49:28.789Z,101457.22
2022-11-05T03:53:36.825Z,101449.50
2022-11-05T03:57:44.240Z,101457.63
2022-11-05T04:01:46.047Z,101459.56
2022-11-05T04:06:07.998Z,101471.31
2022-11-05T04:10:33.217Z,101475.22
2022-11-05T04:14:34.924Z,101474.38
2022-11-05T04:18:36.953Z,101473.53
2022-11-05T04:22:56.876Z,101472.97
2022-11-05T04:26:59.301Z,101475.19
2022-11-05T04:31:00.957Z,101470.53
2022-11-05T04:35:02.691Z,101473.47
2022-11-05T04:39:04.366Z,101484.94
2022-11-05T04:43:13.616Z,101478.91
2022-11-05T04:47:16.650Z,101486.31
2022-11-05T04:51:18.329Z,101483.63
2022-11-05T04:55:20.031Z,101474.97
2022-11-05T04:59:21.712Z,101478.72
2022-11-05T05:03:23.824Z,101477.63
2022-11-05T05:07:26.021Z,101484.50
2022-11-05T05:11:27.634Z,101483.84
2022-11-05T05:15:29.362Z,101481.88
2022-11-05T05:19:51.001Z,101477.28
2022-11-05T05:23:52.690Z,101481.63
2022-11-05T05:27:57.552Z,101478.94
2022-11-05T05:31:59.288Z,101478.22
2022-11-05T12:29:12.156Z,101551.97
2022-11-05T12:33:05.442Z,101548.75
2022-11-05T12:37:45.048Z,101551.56
2022-11-05T12:41:53.905Z,101550.91
2022-11-05T12:46:01.576Z,101538.25
2022-11-05T12:50:28.622Z,101537.63
2022-11-05T12:54:33.288Z,101535.34
2022-11-05T12:58:39.663Z,101524.66
2022-11-05T13:03:05.151Z,101507.59
2022-11-05T13:07:11.797Z,101508.31
2022-11-05T13:11:26.416Z,101501.25
2022-11-05T13:15:34.444Z,101506.59
2022-11-05T13:19:41.898Z,101503.25
2022-11-05T13:24:01.626Z,101490.91
2022-11-05T13:28:33.013Z,101492.03
2022-11-05T13:32:39.393Z,101493.16
2022-11-05T13:37:21.125Z,101486.97
2022-11-05T13:41:46.797Z,101499.16
2022-11-05T13:46:06.551Z,101496.59
2022-11-05T13:50:26.680Z,101494.41
2022-11-05T13:54:52.689Z,101486.13
2022-11-05T13:59:10.349Z,101490.28
2022-11-05T14:03:20.624Z,101488.19
2022-11-05T14:07:29.295Z,101489.50
2022-11-05T14:11:37.471Z,101490.09
2022-11-05T14:15:39.213Z,101491.25
2022-11-05T14:20:02.793Z,101487.72
2022-11-05T14:24:22.881Z,101495.72
2022-11-05T14:28:36.581Z,101489.84
2022-11-05T14:32:45.780Z,101491.00
2022-11-05T14:37:12.661Z,101494.97
2022-11-05T14:41:14.640Z,101491.75
2022-11-05T14:45:32.770Z,101488.53
2022-11-05T14:49:53.220Z,101483.50
2022-11-05T14:54:00.435Z,101480.13
2022-11-05T14:58:05.954Z,101478.44
2022-11-05T15:02:15.756Z,101474.09
2022-11-05T15:06:35.467Z,101472.44
2022-11-05T15:10:37.712Z,101464.72
2022-11-05T15:14:58.928Z,101472.00
2022-11-05T15:19:01.391Z,101472.19
2022-11-05T15:23:05.378Z,101462.50
2022-11-05T15:27:15.829Z,101461.63
2022-11-05T15:31:37.701Z,101461.94
2022-11-05T15:35:41.508Z,101460.25
2022-11-05T15:39:45.727Z,101463.91
2022-11-05T15:43:49.409Z,101463.91
2022-11-05T15:47:51.148Z,101463.06
2022-11-05T15:51:52.876Z,101454.34
2022-11-05T15:55:59.086Z,101450.19
2022-11-05T16:00:08.395Z,101458.31
2022-11-05T16:04:23.690Z,101444.41
2022-11-05T16:08:28.168Z,101440.91
2022-11-05T16:12:32.657Z,101448.34
2022-11-05T16:16:34.503Z,101437.97
2022-11-05T16:20:38.457Z,101434.63
2022-11-05T16:24:42.814Z,101430.41
2022-11-05T16:28:50.501Z,101435.19
2022-11-05T16:32:52.567Z,101428.34
2022-11-05T16:36:56.715Z,101428.47
2022-11-05T16:41:00.379Z,101428.47
2022-11-05T16:45:02.064Z,101415.41
2022-11-05T16:49:04.260Z,101420.06
2022-11-05T16:53:06.073Z,101415.69
2022-11-05T16:57:23.520Z,101409.53
2022-11-05T17:01:25.442Z,101408.41
2022-11-05T17:05:29.804Z,101415.41
2022-11-05T17:09:32.007Z,101415.41
2022-11-05T17:13:34.114Z,101416.25
2022-11-05T17:17:35.773Z,101424.25
2022-11-05T17:21:37.449Z,101433.13
2022-11-05T17:25:40.843Z,101443.81
2022-11-05T17:29:42.519Z,101447.44
2022-11-05T17:33:44.244Z,101444.78
2022-11-05T17:37:46.183Z,101449.44
2022-11-05T17:41:48.036Z,101456.44
2022-11-05T17:45:52.080Z,101453.06
2022-11-05T17:49:53.809Z,101451.28
2022-11-05T17:53:55.841Z,101447.72
2022-11-05T17:57:57.675Z,101439.72
2022-11-05T18:01:59.585Z,101439.59
2022-11-05T18:06:06.407Z,101441.44
2022-11-05T18:10:08.499Z,101440.44
2022-11-05T18:14:10.775Z,101428.09
2022-11-05T18:18:12.716Z,101416.56
2022-11-05T18:22:16.372Z,101410.38
2022-11-05T18:26:18.436Z,101414.88
2022-11-05T18:30:20.191Z,101411.38
2022-11-05T18:34:21.846Z,101414.19
2022-11-05T18:38:23.562Z,101408.03
2022-11-05T18:42:25.515Z,101394.69
2022-11-05T18:46:56.475Z,101384.00
2022-11-05T18:50:50.893Z,101374.16
2022-11-05T18:54:52.609Z,101353.66
2022-11-05T18:59:14.822Z,101363.31
2022-11-05T19:03:16.291Z,101356.31
2022-11-05T19:07:19.266Z,101365.16
2022-11-05T19:11:23.164Z,101363.31
2022-11-05T19:15:24.821Z,101373.00
2022-11-05T19:19:27.422Z,101359.53
2022-11-05T19:23:29.104Z,101356.69
2022-11-05T19:27:30.801Z,101351.34
2022-11-05T19:31:32.550Z,101352.06
2022-11-05T19:35:39.998Z,101343.06
2022-11-05T19:39:43.348Z,101342.06
2022-11-05T19:43:45.728Z,101332.25
2022-11-05T19:47:47.492Z,101344.59
2022-11-05T19:51:49.193Z,101334.03
2022-11-05T19:55:50.835Z,101330.53
2022-11-05T19:59:52.495Z,101330.53
2022-11-05T20:03:56.252Z,101333.38
2022-11-05T20:07:57.988Z,101327.34
2022-11-05T20:11:59.863Z,101323.81
2022-11-05T20:16:01.767Z,101327.50
2022-11-05T20:20:04.290Z,101316.81
2022-11-05T20:24:06.333Z,101321.31
2022-11-05T20:28:08.153Z,101317.81
2022-11-05T20:32:12.553Z,101313.44
2022-11-05T20:36:16.762Z,101327.13
2022-11-05T20:40:18.508Z,101323.91
2022-11-05T20:44:20.244Z,101329.53
2022-11-05T20:48:21.960Z,101325.31
2022-11-05T20:52:23.635Z,101326.16
2022-11-05T20:56:28.042Z,101336.84
2022-11-05T21:00:29.785Z,101332.88
2022-11-05T21:04:31.585Z,101330.91
2022-11-05T21:08:34.043Z,101311.94
2022-11-05T21:12:35.790Z,101308.28
2022-11-05T21:16:37.468Z,101312.78
2022-11-05T21:20:40.123Z,101312.59
2022-11-05T21:24:42.672Z,101311.59
2022-11-05T21:28:44.413Z,101310.47
2022-11-05T21:32:46.034Z,101311.31
2022-11-05T21:36:47.736Z,101324.66
2022-11-05T21:40:49.820Z,101317.66
2022-11-05T21:44:53.986Z,101307.69
2022-11-05T21:48:59.507Z,101310.34
2022-11-05T21:53:19.804Z,101307.69
2022-11-05T21:57:40.218Z,101312.03
2022-11-05T22:01:41.959Z,101288.00
2022-11-05T22:05:43.778Z,101296.00
2022-11-05T22:09:45.826Z,101296.84
2022-11-05T22:13:47.483Z,101293.34
2022-11-05T22:17:52.302Z,101295.84
2022-11-05T22:21:54.027Z,101294.88
2022-11-05T22:26:02.856Z,101287.84
2022-11-05T22:30:05.203Z,101283.31
2022-11-05T22:34:07.668Z,101276.31
2022-11-05T22:38:09.540Z,101282.66
2022-11-05T22:42:11.481Z,101274.66
2022-11-05T22:46:22.384Z,101279.00
2022-11-05T22:50:24.265Z,101256.63
2022-11-05T22:54:26.074Z,101261.97
2022-11-05T22:58:27.773Z,101261.31
2022-11-05T23:02:29.533Z,101265.94
2022-11-05T23:06:51.862Z,101265.81
2022-11-05T23:11:12.184Z,101251.63
2022-11-05T23:15:33.870Z,101240.94
2022-11-05T23:19:54.214Z,101246.28
2022-11-05T23:24:04.908Z,101237.13
2022-11-05T23:28:10.066Z,101243.47
2022-11-05T23:32:24.039Z,101222.09
2022-11-05T23:36:44.302Z,101229.94
2022-11-05T23:41:04.665Z,101235.28
2022-11-05T23:45:25.466Z,101215.63
2022-11-05T23:49:27.342Z,101226.97
2022-11-05T23:53:31.268Z,101234.97
2022-11-05T23:57:43.248Z,101220.63
